This is the latest recevied weather packets stored in our database for station/object KY4GW. If no packets are shown the sender has not sent any weather packets the latest 10 day(s).
| Time | Temp. | Humidity | Pressure | Rain* | Wind** | Luminosity | Snow |
|---|---|---|---|---|---|---|---|
| 1777731485 | 10.56° C | 52% | 1020.7 hPa | 0 mm | - | 517 W/m² | - |
| 1777731183 | 10.56° C | 52% | 1020.7 hPa | 0 mm | - | 546 W/m² | - |
| 1777730881 | 10.56° C | 52% | 1020.7 hPa | 0 mm | - | 520 W/m² | - |
| 1777730578 | 10° C | 55% | 1020.7 hPa | 0 mm | - | 497 W/m² | - |
| 1777730274 | 9.44° C | 55% | 1020.7 hPa | 0 mm | - | 474 W/m² | - |
| 1777729971 | 9.44° C | 55% | 1020.7 hPa | 0 mm | - | 477 W/m² | - |
| 1777729666 | 9.44° C | 55% | 1020.7 hPa | 0 mm | - | 434 W/m² | - |
| 1777729364 | 9.44° C | 55% | 1020.7 hPa | 0 mm | - | 434 W/m² | - |
| 1777729060 | 8.89° C | 56% | 1020.7 hPa | 0 mm | - | 331 W/m² | - |
| 1777728757 | 8.89° C | 58% | 1020.7 hPa | 0 mm | - | 388 W/m² | - |
| 1777728453 | 8.33° C | 59% | 1020.7 hPa | 0 mm | - | 375 W/m² | - |
| 1777728151 | 8.89° C | 58% | 1020.7 hPa | 0 mm | - | 301 W/m² | - |
| 1777727848 | 8.33° C | 61% | 1020.7 hPa | 0 mm | - | 360 W/m² | - |
| 1777727545 | 8.33° C | 63% | 1020.7 hPa | 0 mm | - | 306 W/m² | - |
| 1777727242 | 7.78° C | 63% | 1020.7 hPa | 0 mm | - | 228 W/m² | - |
| 1777726940 | 8.33° C | 62% | 1020.7 hPa | 0 mm | - | 264 W/m² | - |
| 1777726636 | 7.78° C | 66% | 1020.4 hPa | 0 mm | - | 228 W/m² | - |
| 1777726334 | 7.78° C | 67% | 1020.4 hPa | 0 mm | - | 250 W/m² | - |
| 1777726030 | 7.22° C | 68% | 1020.4 hPa | 0 mm | - | 178 W/m² | - |
| 1777725727 | 7.22° C | 71% | 1020.1 hPa | 0 mm | - | 133 W/m² | - |
| 1777725426 | 7.22° C | 71% | 1020.1 hPa | 0 mm | - | 124 W/m² | - |
| 1777725122 | 7.22° C | 72% | 1020.1 hPa | 0 mm | - | 128 W/m² | - |
| 1777724819 | 6.67° C | 72% | 1020.4 hPa | 0 mm | - | 127 W/m² | - |
| 1777724515 | 6.11° C | 74% | 1020.4 hPa | 0 mm | - | 99 W/m² | - |
| 1777724214 | 5.56° C | 78% | 1020.4 hPa | 0 mm | - | 89 W/m² | - |
* Rain latest hour (hover to see other rain measurements)
** Current wind speed in m/s (hover to see current wind gust speed)